createdAt,value
2023-02-27T00:00:49.258Z,3.59
2023-02-27T00:01:49.418Z,3.68
2023-02-27T00:02:49.211Z,3.79
2023-02-27T00:03:49.403Z,3.80
2023-02-27T00:04:49.435Z,3.82
2023-02-27T00:05:49.324Z,3.77
2023-02-27T00:06:49.165Z,3.68
2023-02-27T00:07:49.354Z,3.65
2023-02-27T00:08:49.215Z,3.54
2023-02-27T00:09:49.324Z,3.59
2023-02-27T00:10:49.346Z,3.64
2023-02-27T00:11:49.272Z,3.70
2023-02-27T00:12:49.224Z,3.73
2023-02-27T00:13:48.998Z,3.77
2023-02-27T00:14:49.256Z,3.82
2023-02-27T00:15:49.350Z,3.80
2023-02-27T00:16:49.286Z,3.65
2023-02-27T00:17:49.085Z,3.65
2023-02-27T00:18:49.293Z,3.65
2023-02-27T00:19:49.146Z,3.72
2023-02-27T00:20:49.134Z,3.58
2023-02-27T00:21:49.123Z,3.43
2023-02-27T00:22:49.254Z,3.54
2023-02-27T00:23:49.064Z,3.55
2023-02-27T00:24:49.155Z,3.59
2023-02-27T00:25:49.112Z,3.59
2023-02-27T00:26:49.133Z,3.56
2023-02-27T00:27:49.053Z,3.58
2023-02-27T00:28:48.985Z,3.64
2023-02-27T00:29:49.133Z,3.66
2023-02-27T00:30:48.858Z,3.68
2023-02-27T00:31:49.144Z,3.72
2023-02-27T00:32:48.931Z,3.70
2023-02-27T00:33:49.050Z,3.70
2023-02-27T00:34:48.920Z,3.70
2023-02-27T00:35:49.012Z,3.70
2023-02-27T00:36:48.954Z,3.66
2023-02-27T00:37:48.961Z,3.65
2023-02-27T00:38:49.543Z,3.64
2023-02-27T00:39:48.981Z,3.58
2023-02-27T00:40:49.030Z,3.51
2023-02-27T00:41:48.999Z,3.47
2023-02-27T00:42:48.858Z,3.46
2023-02-27T00:43:48.720Z,3.48
2023-02-27T00:44:48.860Z,3.52
2023-02-27T00:45:48.764Z,3.55
2023-02-27T00:46:49.016Z,3.61
2023-02-27T00:47:48.679Z,3.54
2023-02-27T00:48:48.852Z,3.51
2023-02-27T00:49:48.680Z,3.48
2023-02-27T00:50:48.879Z,3.40
2023-02-27T00:51:48.769Z,3.36
2023-02-27T00:52:48.938Z,3.43
2023-02-27T00:53:48.749Z,3.43
2023-02-27T00:54:48.788Z,3.44
2023-02-27T00:55:48.754Z,3.44
2023-02-27T00:56:48.788Z,3.44
2023-02-27T00:57:48.740Z,3.41
2023-02-27T00:58:48.753Z,3.40
2023-02-27T00:59:48.778Z,3.36
2023-02-27T01:00:48.814Z,3.37
2023-02-27T01:01:48.757Z,3.48
2023-02-27T01:02:48.634Z,3.58
2023-02-27T01:03:48.788Z,3.56
2023-02-27T01:04:48.710Z,3.47
2023-02-27T01:05:48.780Z,3.46
2023-02-27T01:06:48.776Z,3.62
2023-02-27T01:07:48.686Z,3.74
2023-02-27T01:08:48.565Z,3.70
2023-02-27T01:09:48.663Z,3.70
2023-02-27T01:10:48.642Z,3.59
2023-02-27T01:11:48.614Z,3.55
2023-02-27T01:12:48.585Z,3.59
2023-02-27T01:13:48.608Z,3.55
2023-02-27T01:14:48.598Z,3.46
2023-02-27T01:15:48.467Z,3.35
2023-02-27T01:16:48.650Z,3.18
2023-02-27T01:17:48.527Z,3.19
2023-02-27T01:18:48.527Z,3.25
2023-02-27T01:19:48.460Z,3.32
2023-02-27T01:20:48.587Z,3.40
2023-02-27T01:21:48.387Z,3.35
2023-02-27T01:22:48.626Z,3.33
2023-02-27T01:23:48.537Z,3.40
2023-02-27T01:24:48.547Z,3.41
2023-02-27T01:25:48.407Z,3.37
2023-02-27T01:26:48.527Z,3.36
2023-02-27T01:27:48.416Z,3.35
2023-02-27T01:28:48.636Z,3.27
2023-02-27T01:29:48.465Z,3.24
2023-02-27T01:30:48.343Z,3.24
2023-02-27T01:31:48.523Z,3.25
2023-02-27T01:32:48.328Z,3.27
2023-02-27T01:33:48.618Z,3.33
2023-02-27T01:34:48.446Z,3.37
2023-02-27T01:35:48.350Z,3.46
2023-02-27T01:36:48.346Z,3.56
2023-02-27T01:55:48.930Z,3.06
2023-02-27T01:56:48.626Z,3.01
2023-02-27T01:57:48.637Z,3.01
2023-02-27T01:58:48.556Z,2.97
2023-02-27T01:59:48.753Z,3.00
2023-02-27T02:00:48.587Z,3.00
2023-02-27T02:01:48.677Z,2.96
2023-02-27T02:02:48.577Z,2.97
2023-02-27T02:03:48.416Z,2.99
2023-02-27T02:04:48.607Z,2.97
2023-02-27T02:05:48.380Z,2.99
2023-02-27T02:06:48.565Z,2.99
2023-02-27T02:07:48.381Z,3.04
2023-02-27T02:08:48.618Z,3.12
2023-02-27T02:09:48.527Z,3.15
2023-02-27T02:10:48.515Z,3.40
2023-02-27T02:11:48.394Z,3.47
2023-02-27T02:12:48.478Z,3.48
2023-02-27T02:13:48.464Z,3.54
2023-02-27T02:14:48.533Z,3.55
2023-02-27T02:15:48.476Z,3.56
2023-02-27T02:16:48.515Z,3.52
2023-02-27T02:17:48.366Z,3.47
2023-02-27T02:18:48.519Z,3.46
2023-02-27T02:19:48.418Z,3.46
2023-02-27T02:20:48.335Z,3.37
2023-02-27T02:21:48.454Z,3.33
2023-02-27T02:22:48.248Z,3.35
2023-02-27T02:23:48.386Z,3.28
2023-02-27T02:24:48.284Z,3.32
2023-02-27T02:25:48.372Z,3.25
2023-02-27T02:26:48.285Z,3.24
2023-02-27T02:27:48.425Z,3.21
2023-02-27T02:28:48.234Z,3.12
2023-02-27T02:29:48.377Z,3.19
2023-02-27T02:30:48.311Z,3.25
2023-02-27T02:31:48.485Z,3.25
2023-02-27T02:32:48.246Z,3.25
2023-02-27T02:33:48.327Z,3.25
2023-02-27T02:34:48.347Z,3.24
2023-02-27T02:35:48.061Z,3.14
2023-02-27T02:36:48.446Z,3.14
2023-02-27T02:37:48.129Z,3.14
2023-02-27T02:38:48.256Z,3.12
2023-02-27T02:39:48.107Z,3.03
2023-02-27T02:40:48.288Z,2.94
2023-02-27T02:41:48.135Z,2.97
2023-02-27T02:42:48.254Z,2.94
2023-02-27T02:43:48.049Z,2.91
2023-02-27T02:44:48.252Z,2.79
2023-02-27T02:45:48.113Z,2.71
2023-02-27T02:46:48.225Z,2.79
2023-02-27T02:47:48.056Z,2.68
2023-02-27T02:48:48.218Z,2.52
2023-02-27T02:49:48.116Z,2.64
2023-02-27T02:50:47.934Z,2.74
2023-02-27T02:51:48.237Z,2.83
2023-02-27T02:52:48.029Z,2.89
2023-02-27T02:53:48.061Z,2.94
2023-02-27T02:54:47.918Z,2.89
2023-02-27T02:55:48.156Z,2.86
2023-02-27T02:56:47.996Z,2.88
2023-02-27T02:57:48.057Z,2.78
2023-02-27T02:58:47.928Z,2.82
2023-02-27T02:59:48.016Z,2.83
2023-02-27T03:00:47.856Z,2.88
2023-02-27T03:01:48.261Z,2.92
2023-02-27T03:02:48.101Z,2.94
2023-02-27T03:03:48.162Z,2.82
2023-02-27T03:04:47.990Z,2.81
2023-02-27T03:05:47.786Z,2.91
2023-02-27T03:06:47.926Z,2.91
2023-02-27T03:07:47.966Z,2.89
2023-02-27T03:08:47.916Z,2.82
2023-02-27T03:09:47.775Z,2.83
2023-02-27T03:10:47.938Z,2.79
2023-02-27T03:11:47.813Z,2.73
2023-02-27T03:12:47.950Z,2.68
2023-02-27T03:13:47.789Z,2.68
2023-02-27T03:14:47.858Z,2.73
2023-02-27T03:15:47.803Z,2.78
2023-02-27T03:16:47.838Z,2.86
2023-02-27T03:17:47.730Z,2.82
2023-02-27T03:18:47.886Z,2.79
2023-02-27T03:19:47.797Z,2.76
2023-02-27T03:20:47.785Z,2.68
2023-02-27T03:21:47.814Z,2.64
2023-02-27T03:22:47.666Z,2.60
2023-02-27T03:23:47.890Z,2.53
2023-02-27T03:24:47.634Z,2.55
2023-02-27T03:25:47.842Z,2.50
2023-02-27T03:26:47.643Z,2.35
2023-02-27T03:27:47.788Z,2.32
2023-02-27T03:28:47.812Z,2.32
2023-02-27T03:29:47.729Z,2.37
2023-02-27T03:30:47.733Z,2.35
2023-02-27T03:31:47.802Z,2.40
2023-02-27T03:32:47.616Z,2.34
2023-02-27T03:33:47.670Z,2.34
2023-02-27T03:34:47.679Z,2.31
2023-02-27T03:35:47.689Z,2.28
2023-02-27T03:36:47.579Z,2.28
2023-02-27T03:37:47.432Z,2.34
2023-02-27T03:38:47.620Z,2.39
2023-02-27T03:39:47.438Z,2.42
2023-02-27T03:40:47.639Z,2.24
2023-02-27T03:41:47.450Z,2.24
2023-02-27T03:42:47.670Z,2.24
2023-02-27T03:43:47.509Z,2.17
2023-02-27T03:44:47.648Z,2.20
2023-02-27T03:45:47.460Z,2.20
2023-02-27T03:46:47.648Z,2.13
2023-02-27T03:47:47.468Z,2.14
2023-02-27T03:48:47.551Z,2.13
2023-02-27T03:49:47.461Z,2.13
2023-02-27T03:50:47.529Z,2.14
2023-02-27T03:51:47.578Z,2.17
2023-02-27T03:52:47.279Z,2.21
2023-02-27T03:53:47.481Z,2.22
2023-02-27T03:54:47.279Z,2.29
2023-02-27T03:55:47.667Z,2.31
2023-02-27T03:56:47.369Z,2.37
2023-02-27T03:57:47.438Z,2.34
2023-02-27T03:58:47.257Z,2.32
2023-02-27T03:59:47.426Z,2.28
2023-02-27T04:00:47.297Z,2.24
2023-02-27T04:01:47.422Z,2.21
2023-02-27T04:02:47.395Z,2.21
2023-02-27T04:03:47.359Z,2.21
2023-02-27T04:04:47.300Z,2.16
2023-02-27T04:05:47.350Z,2.21
2023-02-27T04:06:47.289Z,2.22
2023-02-27T04:07:47.161Z,2.27
2023-02-27T04:08:47.249Z,2.32
2023-02-27T04:09:47.311Z,2.31
2023-02-27T04:10:47.271Z,2.37
2023-02-27T04:11:47.138Z,2.39
2023-02-27T04:12:47.380Z,2.39
2023-02-27T04:13:47.106Z,2.27
2023-02-27T04:14:47.319Z,2.31
2023-02-27T04:15:47.156Z,2.31
2023-02-27T04:16:47.209Z,2.28
2023-02-27T04:17:47.097Z,2.22
2023-02-27T04:18:47.289Z,2.13
2023-02-27T04:19:47.099Z,2.09
2023-02-27T04:20:47.359Z,2.13
2023-02-27T04:21:47.112Z,2.04
2023-02-27T04:22:47.200Z,1.98
2023-02-27T04:23:47.162Z,2.06
2023-02-27T04:24:46.927Z,2.02
2023-02-27T04:25:47.099Z,1.99
2023-02-27T04:26:46.931Z,1.91
2023-02-27T04:27:47.079Z,1.79
2023-02-27T04:28:46.961Z,1.77
2023-02-27T04:29:47.181Z,1.70
2023-02-27T04:30:47.037Z,1.61
2023-02-27T04:31:47.352Z,1.61
2023-02-27T04:32:46.961Z,1.59
2023-02-27T04:33:47.111Z,1.61
2023-02-27T04:34:46.967Z,1.65
2023-02-27T04:35:47.147Z,1.69
2023-02-27T04:36:46.955Z,1.65
2023-02-27T04:37:47.114Z,1.65
2023-02-27T04:38:46.966Z,1.59
2023-02-27T04:39:46.769Z,1.61
2023-02-27T04:40:46.936Z,1.63
2023-02-27T04:41:46.870Z,1.61
2023-02-27T04:42:47.025Z,1.54
2023-02-27T04:43:46.777Z,1.41
2023-02-27T04:44:46.948Z,1.48
2023-02-27T04:45:46.810Z,1.48
2023-02-27T04:46:47.147Z,1.47
2023-02-27T04:47:46.817Z,1.51
2023-02-27T04:48:46.981Z,1.61
2023-02-27T04:49:46.847Z,1.58
2023-02-27T04:50:46.901Z,1.69
2023-02-27T04:51:46.771Z,1.87
2023-02-27T04:52:46.948Z,2.04
2023-02-27T04:53:46.868Z,2.10
2023-02-27T04:54:46.863Z,2.10
2023-02-27T04:55:47.490Z,2.07
2023-02-27T04:56:46.657Z,1.99
2023-02-27T04:57:46.929Z,1.87
2023-02-27T04:58:46.598Z,1.74
2023-02-27T04:59:46.855Z,1.59
2023-02-27T05:00:46.628Z,1.51
2023-02-27T05:01:46.836Z,1.47
2023-02-27T05:02:46.710Z,1.40
2023-02-27T05:03:46.972Z,1.36
2023-02-27T05:04:46.728Z,1.34
2023-02-27T05:05:46.777Z,1.30
2023-02-27T05:06:46.629Z,1.16
2023-02-27T05:07:46.740Z,1.10
2023-02-27T05:08:46.717Z,1.02
2023-02-27T05:09:46.785Z,1.05
2023-02-27T05:10:46.585Z,1.04
2023-02-27T05:11:46.492Z,0.98
2023-02-27T05:12:46.727Z,0.92
2023-02-27T05:13:46.473Z,0.98
2023-02-27T05:14:46.855Z,0.90
2023-02-27T05:15:46.506Z,0.79
2023-02-27T05:16:46.658Z,0.76
2023-02-27T05:17:46.506Z,0.76
2023-02-27T05:18:46.617Z,0.76
2023-02-27T05:19:46.589Z,0.79
2023-02-27T05:20:46.584Z,0.73
2023-02-27T05:21:46.518Z,0.66
2023-02-27T05:22:46.584Z,0.65
2023-02-27T05:23:46.464Z,0.64
2023-02-27T05:24:46.645Z,0.58
2023-02-27T05:25:46.512Z,0.56
2023-02-27T05:26:46.529Z,0.61
2023-02-27T05:27:46.535Z,0.66
2023-02-27T05:28:46.344Z,0.68
2023-02-27T05:29:46.462Z,0.70
2023-02-27T05:30:46.396Z,0.77
2023-02-27T05:31:46.670Z,0.77
2023-02-27T05:32:46.314Z,0.73
2023-02-27T05:33:46.500Z,0.72
2023-02-27T05:34:46.389Z,0.76
2023-02-27T05:35:46.511Z,0.80
2023-02-27T05:36:46.315Z,0.84
2023-02-27T05:37:46.422Z,0.84
2023-02-27T05:38:46.532Z,0.83
2023-02-27T05:39:46.422Z,0.83
2023-02-27T05:40:46.383Z,0.95
2023-02-27T05:41:46.373Z,0.95
2023-02-27T05:42:46.440Z,1.00
2023-02-27T05:43:46.588Z,1.00
2023-02-27T05:44:46.532Z,1.05
2023-02-27T05:45:46.368Z,1.08
2023-02-27T05:46:46.361Z,1.12
2023-02-27T05:47:46.281Z,1.08
2023-02-27T05:48:46.333Z,1.01
2023-02-27T05:49:46.200Z,0.98
2023-02-27T05:50:46.298Z,0.98
2023-02-27T05:51:46.225Z,0.95
2023-02-27T05:52:46.329Z,0.95
2023-02-27T05:53:46.150Z,0.95
2023-02-27T05:54:46.301Z,0.92
2023-02-27T05:55:46.243Z,0.88
2023-02-27T05:56:46.354Z,0.84
2023-02-27T05:57:46.212Z,0.82
2023-02-27T05:58:46.034Z,0.91
2023-02-27T05:59:47.096Z,0.97
2023-02-27T06:00:46.177Z,1.16
2023-02-27T06:01:46.564Z,1.18
2023-02-27T06:02:46.149Z,1.22
2023-02-27T06:03:46.274Z,1.20
2023-02-27T06:04:46.024Z,1.19
2023-02-27T06:05:46.161Z,1.19
2023-02-27T06:06:46.100Z,1.23
2023-02-27T06:07:46.155Z,1.26
2023-02-27T06:08:46.111Z,1.19
2023-02-27T06:09:46.084Z,1.16
2023-02-27T06:10:45.283Z,1.12
2023-02-27T06:11:46.877Z,1.15
2023-02-27T06:12:45.994Z,1.18
2023-02-27T06:13:46.136Z,1.26
2023-02-27T06:14:46.026Z,1.34
2023-02-27T06:15:45.867Z,1.48
2023-02-27T06:16:46.138Z,1.52
2023-02-27T06:17:45.865Z,1.65
2023-02-27T06:18:46.046Z,1.69
2023-02-27T06:19:45.921Z,1.72
2023-02-27T06:20:45.990Z,1.76
2023-02-27T06:21:45.865Z,1.87
2023-02-27T06:22:46.065Z,1.99
2023-02-27T06:23:45.892Z,2.09
2023-02-27T06:24:46.046Z,2.10
2023-02-27T06:25:45.889Z,2.11
2023-02-27T06:26:45.945Z,2.06
2023-02-27T06:27:45.857Z,2.07
2023-02-27T06:28:45.938Z,1.99
2023-02-27T06:29:45.957Z,1.98
2023-02-27T06:30:46.490Z,1.98
2023-02-27T06:31:45.881Z,1.98
2023-02-27T06:32:45.723Z,2.02
2023-02-27T06:33:45.902Z,1.99
2023-02-27T06:34:46.422Z,2.02
2023-02-27T06:35:45.903Z,1.94
2023-02-27T06:36:45.761Z,2.02
2023-02-27T06:37:45.820Z,2.13
2023-02-27T06:38:45.658Z,2.14
2023-02-27T06:39:45.880Z,2.11
2023-02-27T06:40:45.721Z,2.09
2023-02-27T06:41:45.845Z,2.02
2023-02-27T06:42:45.742Z,1.95
2023-02-27T06:43:45.785Z,1.95
2023-02-27T06:44:44.971Z,1.99
2023-02-27T06:45:46.409Z,2.07
2023-02-27T06:46:46.020Z,2.07
2023-02-27T06:47:44.906Z,2.14
2023-02-27T06:48:46.724Z,2.20
2023-02-27T06:49:45.493Z,2.27
2023-02-27T06:50:45.789Z,2.31
2023-02-27T06:51:45.560Z,2.34
2023-02-27T06:52:45.729Z,2.37
2023-02-27T06:53:44.858Z,2.31
2023-02-27T06:54:45.606Z,2.31
2023-02-27T06:55:45.527Z,2.39
2023-02-27T06:56:45.668Z,2.40
2023-02-27T06:57:45.548Z,2.57
2023-02-27T06:58:45.588Z,2.61
2023-02-27T06:59:45.678Z,2.79
2023-02-27T07:00:45.639Z,2.88
2023-02-27T07:01:45.915Z,2.92
2023-02-27T07:02:45.390Z,3.00
2023-02-27T07:03:45.913Z,3.00
2023-02-27T07:04:45.397Z,3.04
2023-02-27T07:05:45.669Z,3.03
2023-02-27T07:07:34.016Z,3.01
2023-02-27T07:07:44.727Z,3.04
2023-02-27T07:09:00.781Z,3.15
2023-02-27T07:09:45.451Z,3.27
2023-02-27T07:10:45.399Z,3.47
2023-02-27T07:11:45.538Z,3.55
2023-02-27T07:12:45.397Z,3.55
2023-02-27T07:13:45.581Z,3.40
2023-02-27T07:14:45.469Z,3.22
2023-02-27T07:15:45.485Z,3.17
2023-02-27T07:16:45.330Z,3.18
2023-02-27T07:17:45.308Z,3.19
2023-02-27T07:18:45.332Z,3.17
2023-02-27T07:19:45.271Z,3.22
2023-02-27T07:20:45.331Z,3.22
2023-02-27T07:21:45.270Z,3.25
2023-02-27T07:22:45.348Z,3.21
2023-02-27T07:23:45.214Z,3.18
2023-02-27T07:24:45.338Z,3.21
2023-02-27T07:25:45.301Z,3.24
2023-02-27T07:26:45.288Z,3.24
2023-02-27T07:27:45.167Z,3.29
2023-02-27T07:28:45.339Z,3.28
2023-02-27T07:29:44.475Z,3.25
2023-02-27T07:30:45.282Z,3.18
2023-02-27T07:31:45.390Z,3.18
2023-02-27T07:32:45.119Z,3.21
2023-02-27T07:33:45.307Z,3.21
2023-02-27T07:34:45.058Z,3.21
2023-02-27T07:35:44.441Z,3.24
2023-02-27T07:36:45.160Z,3.10
2023-02-27T07:37:44.419Z,3.17
2023-02-27T07:38:45.091Z,3.25
2023-02-27T07:39:45.413Z,3.24
2023-02-27T07:40:45.059Z,3.29
2023-02-27T07:41:45.229Z,3.37
2023-02-27T07:42:45.320Z,3.44
2023-02-27T07:43:45.552Z,3.47
2023-02-27T07:44:44.316Z,3.46
2023-02-27T07:45:45.165Z,3.41
2023-02-27T07:46:45.088Z,3.47
2023-02-27T07:47:45.184Z,3.46
2023-02-27T07:48:45.104Z,3.33
2023-02-27T07:49:44.903Z,3.32
2023-02-27T07:50:45.053Z,3.43
2023-02-27T07:51:44.253Z,3.61
2023-02-27T07:52:45.084Z,3.73
2023-02-27T07:53:44.255Z,3.74
2023-02-27T07:54:45.162Z,3.79
2023-02-27T07:55:44.453Z,3.84
2023-02-27T07:56:46.163Z,3.86
2023-02-27T07:57:44.884Z,3.90
2023-02-27T07:58:45.066Z,4.02
2023-02-27T07:59:44.933Z,4.05
2023-02-27T08:00:45.035Z,4.04
2023-02-27T08:01:44.175Z,4.09
2023-02-27T08:02:45.008Z,4.00
2023-02-27T08:03:44.873Z,3.90
2023-02-27T08:04:44.833Z,3.94
2023-02-27T08:05:44.969Z,4.04
2023-02-27T08:06:44.155Z,4.04
2023-02-27T08:07:45.323Z,4.00
2023-02-27T08:08:44.758Z,4.01
2023-02-27T08:09:44.169Z,4.04
2023-02-27T08:10:44.704Z,4.00
2023-02-27T08:11:45.829Z,3.94
2023-02-27T08:12:44.809Z,3.92
2023-02-27T08:14:01.276Z,3.83
2023-02-27T08:14:44.741Z,3.86
2023-02-27T08:15:44.878Z,3.92
2023-02-27T08:16:44.765Z,4.00
2023-02-27T08:17:44.135Z,4.02
2023-02-27T08:18:45.494Z,4.01
2023-02-27T08:19:44.803Z,3.95
2023-02-27T08:20:43.956Z,4.00
2023-02-27T08:21:45.452Z,3.92
2023-02-27T08:22:44.454Z,3.94
2023-02-27T08:23:44.654Z,3.91
2023-02-27T08:24:44.845Z,3.95
2023-02-27T08:25:44.565Z,4.05
2023-02-27T08:26:43.900Z,4.20
2023-02-27T08:27:45.516Z,4.38
2023-02-27T08:28:44.786Z,4.51
2023-02-27T08:29:43.873Z,4.51
2023-02-27T08:30:45.459Z,4.53
2023-02-27T08:31:44.480Z,4.52
2023-02-27T08:32:43.831Z,4.45
2023-02-27T08:33:44.582Z,4.43
2023-02-27T08:34:43.817Z,4.48
2023-02-27T08:35:43.846Z,4.46
2023-02-27T08:36:44.427Z,4.38
2023-02-27T08:37:43.806Z,4.30
2023-02-27T08:38:45.765Z,4.20
2023-02-27T08:39:44.994Z,4.09
2023-02-27T08:40:43.820Z,4.15
2023-02-27T08:41:45.765Z,4.23
2023-02-27T08:42:44.900Z,4.37
2023-02-27T08:43:44.579Z,4.28
2023-02-27T08:44:43.729Z,4.27
2023-02-27T08:45:44.557Z,4.26
2023-02-27T08:46:43.759Z,4.02
2023-02-27T08:47:45.075Z,4.02
2023-02-27T08:48:44.720Z,3.97
2023-02-27T08:49:44.541Z,4.02
2023-02-27T08:50:43.662Z,4.02
2023-02-27T08:51:44.391Z,3.94
2023-02-27T08:52:43.680Z,3.90
2023-02-27T08:53:44.983Z,3.92
2023-02-27T08:54:44.479Z,4.01
2023-02-27T08:55:43.580Z,4.19
2023-02-27T08:56:44.869Z,4.30
2023-02-27T08:57:43.979Z,4.38
2023-02-27T08:58:43.588Z,4.43
2023-02-27T08:59:45.154Z,4.41
2023-02-27T09:00:44.203Z,4.49
2023-02-27T09:01:43.569Z,4.58
2023-02-27T09:02:44.848Z,4.43
2023-02-27T09:03:43.702Z,4.52
2023-02-27T09:04:44.450Z,4.52
2023-02-27T09:05:43.536Z,4.52
2023-02-27T09:06:44.830Z,4.43
2023-02-27T09:07:43.739Z,4.27
2023-02-27T09:08:43.510Z,4.13
2023-02-27T09:09:44.982Z,4.15
2023-02-27T09:10:43.778Z,4.26
2023-02-27T09:11:44.283Z,4.28
2023-02-27T09:12:44.119Z,4.34
2023-02-27T09:13:43.431Z,4.45
2023-02-27T09:14:44.159Z,4.55
2023-02-27T09:15:43.392Z,4.48
2023-02-27T09:16:44.919Z,4.43
2023-02-27T09:17:44.074Z,4.53
2023-02-27T09:18:43.401Z,4.71
2023-02-27T09:19:44.931Z,4.71
2023-02-27T09:20:43.770Z,4.73
2023-02-27T09:21:43.915Z,4.71
2023-02-27T09:22:43.681Z,4.76
2023-02-27T09:23:45.015Z,4.58
2023-02-27T09:24:44.231Z,4.37
2023-02-27T09:25:43.411Z,4.37
2023-02-27T09:26:46.413Z,4.46
2023-02-27T09:27:43.952Z,4.58
2023-02-27T09:28:44.061Z,4.59
2023-02-27T09:29:43.262Z,4.63
2023-02-27T09:30:44.132Z,4.77
2023-02-27T09:31:44.119Z,4.73
2023-02-27T09:32:44.293Z,4.79
2023-02-27T09:33:43.210Z,4.90
2023-02-27T09:34:44.001Z,4.99
2023-02-27T09:35:43.259Z,4.98
2023-02-27T09:36:43.799Z,5.14
2023-02-27T09:37:43.210Z,5.31
2023-02-27T09:38:45.118Z,5.36
2023-02-27T09:39:46.263Z,5.61
2023-02-27T09:40:43.782Z,5.58
2023-02-27T09:41:43.881Z,5.44
2023-02-27T09:42:43.824Z,5.36
2023-02-27T09:43:43.930Z,5.53
2023-02-27T09:44:47.132Z,5.39
2023-02-27T09:45:43.982Z,5.10
2023-02-27T09:46:43.102Z,5.06
2023-02-27T09:47:43.846Z,5.14
2023-02-27T09:48:43.812Z,5.36
2023-02-27T09:49:43.842Z,5.57
2023-02-27T09:50:43.192Z,5.49
2023-02-27T09:51:44.356Z,5.39
2023-02-27T09:52:43.780Z,5.50
2023-02-27T09:53:43.682Z,5.43
2023-02-27T09:54:44.685Z,5.29
2023-02-27T09:55:43.020Z,5.26
2023-02-27T09:56:44.421Z,5.29
2023-02-27T09:57:43.464Z,5.10
2023-02-27T09:58:43.871Z,5.13
2023-02-27T09:59:42.924Z,5.17
2023-02-27T10:00:44.372Z,5.35
2023-02-27T10:01:43.759Z,5.29
2023-02-27T10:02:43.727Z,5.24
2023-02-27T10:03:43.580Z,5.01
2023-02-27T10:04:42.895Z,4.77
2023-02-27T10:05:44.653Z,4.79
2023-02-27T10:06:43.452Z,4.96
2023-02-27T10:07:43.740Z,4.96
2023-02-27T10:08:43.439Z,5.07
2023-02-27T10:09:43.710Z,5.28
2023-02-27T10:10:43.544Z,5.24
2023-02-27T10:11:42.812Z,5.26
2023-02-27T10:12:43.416Z,5.33
2023-02-27T10:13:42.812Z,5.43
2023-02-27T10:14:44.672Z,5.57
2023-02-27T10:15:43.916Z,5.50
2023-02-27T10:16:42.830Z,5.53
2023-02-27T10:17:43.549Z,5.40
2023-02-27T10:18:42.829Z,5.22
2023-02-27T10:19:43.524Z,5.31
2023-02-27T10:20:43.485Z,5.46
2023-02-27T10:21:43.544Z,5.47
2023-02-27T10:22:43.614Z,5.35
2023-02-27T10:23:43.313Z,5.47
2023-02-27T10:24:43.598Z,5.59
2023-02-27T10:25:43.044Z,5.61
2023-02-27T10:26:43.416Z,5.71
2023-02-27T10:27:43.824Z,5.61
2023-02-27T10:28:43.593Z,5.62
2023-02-27T10:29:43.378Z,5.53
2023-02-27T10:30:42.736Z,5.61
2023-02-27T10:31:43.325Z,5.68
2023-02-27T10:32:43.454Z,5.72
2023-02-27T10:33:43.294Z,5.72
2023-02-27T10:34:43.406Z,5.92
2023-02-27T10:35:42.699Z,5.98
2023-02-27T10:36:43.396Z,5.74
2023-02-27T10:37:43.404Z,5.65
2023-02-27T10:38:43.130Z,5.58
2023-02-27T10:39:42.524Z,5.59
2023-02-27T10:40:43.945Z,5.51
2023-02-27T10:41:43.456Z,5.29
2023-02-27T10:42:43.298Z,5.22
2023-02-27T10:43:43.356Z,4.93
2023-02-27T10:44:42.518Z,4.88
2023-02-27T10:45:44.023Z,5.03
2023-02-27T10:46:43.414Z,4.98
2023-02-27T10:47:42.464Z,4.85
2023-02-27T10:48:43.925Z,5.07
2023-02-27T10:49:42.663Z,5.17
2023-02-27T10:50:42.424Z,5.17
2023-02-27T10:51:43.946Z,5.22
2023-02-27T10:52:43.259Z,5.42
2023-02-27T10:53:42.382Z,5.53
2023-02-27T10:54:43.142Z,5.21
2023-02-27T10:55:42.340Z,5.44
2023-02-27T10:56:44.170Z,5.65
2023-02-27T10:57:43.451Z,5.62
2023-02-27T10:58:43.192Z,5.92
2023-02-27T10:59:42.332Z,6.01
2023-02-27T11:00:43.260Z,6.03
2023-02-27T11:01:42.991Z,6.04
2023-02-27T11:02:43.284Z,6.16
2023-02-27T11:03:43.162Z,6.34
2023-02-27T11:04:43.258Z,6.49
2023-02-27T11:05:42.969Z,6.67
2023-02-27T11:06:43.107Z,6.56
2023-02-27T11:07:42.958Z,6.48
2023-02-27T11:08:42.832Z,6.45
2023-02-27T11:09:42.191Z,6.60
2023-02-27T11:10:42.920Z,6.66
2023-02-27T11:11:43.202Z,6.74
2023-02-27T11:12:42.869Z,7.16
2023-02-27T11:13:43.034Z,7.18
2023-02-27T11:14:42.928Z,7.13
2023-02-27T11:15:42.854Z,7.02
2023-02-27T11:16:42.869Z,7.08
2023-02-27T11:17:42.977Z,7.34
2023-02-27T11:18:43.082Z,7.49
2023-02-27T11:19:43.319Z,7.66
2023-02-27T11:20:42.871Z,7.83
2023-02-27T11:21:42.855Z,7.87
2023-02-27T11:22:42.812Z,7.97
2023-02-27T11:23:42.922Z,8.11
2023-02-27T11:24:42.891Z,8.05
2023-02-27T11:25:42.059Z,7.93
2023-02-27T11:26:42.804Z,7.57
2023-02-27T11:27:42.681Z,7.29
2023-02-27T11:28:42.848Z,6.99
2023-02-27T11:29:42.723Z,7.02
2023-02-27T11:30:42.835Z,7.02
2023-02-27T11:31:42.724Z,6.99
2023-02-27T11:32:42.825Z,7.00
2023-02-27T11:33:42.625Z,6.99
2023-02-27T11:34:42.812Z,7.02
2023-02-27T11:35:42.655Z,6.81
2023-02-27T11:36:42.762Z,6.89
2023-02-27T11:37:43.055Z,6.95
2023-02-27T11:38:42.849Z,7.00
2023-02-27T11:39:43.724Z,7.11
2023-02-27T11:40:42.678Z,7.02
2023-02-27T11:41:41.901Z,7.13
2023-02-27T11:42:42.505Z,7.14
2023-02-27T11:43:41.900Z,7.20
2023-02-27T11:44:50.529Z,7.25
2023-02-27T11:46:04.881Z,7.18
2023-02-27T11:46:47.707Z,7.17
2023-02-27T11:47:42.624Z,7.05
2023-02-27T11:48:42.126Z,7.03
2023-02-27T11:49:43.407Z,7.05
2023-02-27T11:50:42.527Z,6.88
2023-02-27T11:51:41.798Z,6.95
2023-02-27T11:52:42.516Z,7.08
2023-02-27T11:53:41.776Z,7.10
2023-02-27T11:54:42.514Z,7.25
2023-02-27T11:55:42.335Z,7.05
2023-02-27T11:56:42.592Z,6.95
2023-02-27T11:57:42.354Z,6.60
2023-02-27T11:58:42.505Z,6.52
2023-02-27T11:59:42.525Z,6.53
2023-02-27T12:00:42.896Z,6.45
2023-02-27T12:01:42.355Z,6.53
2023-02-27T12:02:42.622Z,6.60
2023-02-27T12:03:42.360Z,6.73
2023-02-27T12:04:42.426Z,6.60
2023-02-27T12:05:42.294Z,6.81
2023-02-27T12:06:42.436Z,7.05
2023-02-27T12:07:42.326Z,7.10
2023-02-27T12:08:42.481Z,7.10
2023-02-27T12:09:42.358Z,6.60
2023-02-27T12:10:42.146Z,6.48
2023-02-27T12:11:42.305Z,6.53
2023-02-27T12:12:42.285Z,6.62
2023-02-27T12:13:42.328Z,6.62
2023-02-27T12:14:42.305Z,6.62
2023-02-27T12:15:41.530Z,6.62
2023-02-27T12:16:42.293Z,6.38
2023-02-27T12:17:42.386Z,6.35
2023-02-27T12:18:42.220Z,6.21
2023-02-27T12:19:42.294Z,6.16
2023-02-27T12:20:42.234Z,6.07
2023-02-27T12:21:41.474Z,6.21
2023-02-27T12:22:42.228Z,6.22
2023-02-27T12:23:42.216Z,5.94
2023-02-27T12:24:42.192Z,5.74
2023-02-27T12:25:42.027Z,5.85
2023-02-27T12:26:41.434Z,5.83
2023-02-27T12:27:43.707Z,5.92
2023-02-27T12:28:41.373Z,6.15
2023-02-27T12:29:42.016Z,6.30
2023-02-27T12:30:42.245Z,6.44
2023-02-27T12:31:42.047Z,6.35
2023-02-27T12:32:42.319Z,6.35
2023-02-27T12:33:42.054Z,6.47
2023-02-27T12:34:42.178Z,6.48
2023-02-27T12:35:42.017Z,6.56
2023-02-27T12:36:42.118Z,6.70
2023-02-27T12:37:42.063Z,6.48
2023-02-27T12:38:42.060Z,6.32
2023-02-27T12:39:42.261Z,6.27
2023-02-27T12:40:41.840Z,5.98
2023-02-27T12:41:42.060Z,5.79
2023-02-27T12:42:41.826Z,5.72
2023-02-27T12:43:42.034Z,5.43
2023-02-27T12:44:42.019Z,5.16
2023-02-27T12:45:42.104Z,5.14
2023-02-27T12:46:41.820Z,5.19
2023-02-27T12:47:41.944Z,5.26
2023-02-27T12:48:41.839Z,5.28
2023-02-27T12:49:42.011Z,5.31
2023-02-27T12:50:41.847Z,5.24
2023-02-27T12:51:42.021Z,5.22
2023-02-27T12:52:41.847Z,5.24
2023-02-27T12:53:41.897Z,5.16
2023-02-27T12:54:41.868Z,5.24
2023-02-27T12:55:41.088Z,5.26
2023-02-27T12:56:41.979Z,5.14
2023-02-27T12:57:41.771Z,5.32
2023-02-27T12:58:41.806Z,5.32
2023-02-27T12:59:41.726Z,5.33
2023-02-27T13:00:41.828Z,5.44
2023-02-27T13:01:41.649Z,5.62
2023-02-27T13:02:41.824Z,5.77
2023-02-27T13:03:41.938Z,5.80
2023-02-27T13:04:41.770Z,5.79
2023-02-27T13:05:41.681Z,5.64
2023-02-27T13:06:41.812Z,5.65
2023-02-27T13:07:41.661Z,5.61
2023-02-27T13:08:41.805Z,5.68
2023-02-27T13:09:41.682Z,5.69
2023-02-27T13:10:41.624Z,5.64
2023-02-27T13:11:41.672Z,5.51
2023-02-27T13:12:41.527Z,5.43
2023-02-27T13:13:41.685Z,5.50
2023-02-27T13:14:42.026Z,5.35
2023-02-27T13:15:41.675Z,5.24
2023-02-27T13:16:41.546Z,5.11
2023-02-27T13:17:41.664Z,5.16
2023-02-27T13:18:41.608Z,5.22
2023-02-27T13:19:41.705Z,5.17
2023-02-27T13:20:41.546Z,5.17
2023-02-27T13:21:42.045Z,5.26
2023-02-27T13:22:41.564Z,5.28
2023-02-27T13:23:41.635Z,5.44
2023-02-27T13:24:41.486Z,5.57
2023-02-27T13:25:41.875Z,5.69
2023-02-27T13:26:41.593Z,5.72
2023-02-27T13:27:41.411Z,5.64
2023-02-27T13:28:41.585Z,5.69
2023-02-27T13:29:41.439Z,5.59
2023-02-27T13:30:41.645Z,5.51
2023-02-27T13:31:41.416Z,5.54
2023-02-27T13:32:44.437Z,5.57
2023-02-27T13:33:41.436Z,5.59
2023-02-27T13:34:41.648Z,5.64
2023-02-27T13:35:41.521Z,5.69
2023-02-27T13:36:41.495Z,5.82